createdAt,value
2019-03-22T00:02:43.022Z,9.6
2019-03-22T00:13:46.240Z,9.5
2019-03-22T00:24:06.530Z,9.6
2019-03-22T00:34:42.284Z,9.5
2019-03-22T00:45:58.283Z,9.4
2019-03-22T00:57:28.494Z,9.3
2019-03-22T01:08:12.611Z,9.3
2019-03-22T01:18:37.600Z,9.3
2019-03-22T01:28:51.320Z,9.2
2019-03-22T01:39:05.100Z,9.0
2019-03-22T01:49:27.910Z,8.9
2019-03-22T01:59:41.287Z,8.9
2019-03-22T02:09:55.577Z,8.8
2019-03-22T02:21:15.402Z,8.8
2019-03-22T02:32:02.428Z,8.8
2019-03-22T02:42:38.115Z,8.8
2019-03-22T02:53:26.736Z,8.7
2019-03-22T03:03:38.265Z,8.7
2019-03-22T03:14:23.855Z,8.7
2019-03-22T03:24:52.402Z,8.7
2019-03-22T03:35:06.470Z,8.6
2019-03-22T03:45:18.508Z,8.6
2019-03-22T03:55:32.053Z,8.6
2019-03-22T04:06:02.070Z,8.5
2019-03-22T04:16:47.627Z,8.4
2019-03-22T04:27:01.180Z,8.4
2019-03-22T04:37:54.034Z,8.4
2019-03-22T04:48:14.773Z,8.4
2019-03-22T04:58:33.796Z,8.3
2019-03-22T05:08:49.053Z,8.2
2019-03-22T05:19:04.531Z,8.2
2019-03-22T05:29:29.873Z,8.1
2019-03-22T05:39:33.008Z,8.1
2019-03-22T05:50:19.919Z,7.9
2019-03-22T06:01:08.342Z,7.9
2019-03-22T06:11:56.492Z,7.9
2019-03-22T06:22:16.475Z,7.9
2019-03-22T06:32:30.524Z,7.9
2019-03-22T06:42:44.803Z,7.8
2019-03-22T06:52:59.165Z,7.8
2019-03-22T07:03:12.962Z,7.8
2019-03-22T07:16:20.935Z,8.1
2019-03-22T07:27:53.631Z,8.3
2019-03-22T07:49:06.709Z,8.5
2019-03-22T07:59:23.125Z,8.7
2019-03-22T08:10:12.116Z,9.6
2019-03-22T08:20:59.495Z,10.5
2019-03-22T08:31:17.731Z,10.6
2019-03-22T08:41:38.873Z,12.3
2019-03-22T08:53:21.721Z,17.4
2019-03-22T09:04:18.196Z,19.9
2019-03-22T09:14:35.463Z,19.9
2019-03-22T09:25:26.852Z,23.4
2019-03-22T09:36:16.917Z,24.8
2019-03-22T09:47:06.019Z,26.1
2019-03-22T09:57:56.910Z,27.4
2019-03-22T10:08:48.347Z,28.5
2019-03-22T10:19:36.208Z,29.5
2019-03-22T10:29:54.571Z,29.5
2019-03-22T10:40:48.600Z,31.1
2019-03-22T10:51:06.572Z,31.1
2019-03-22T11:02:16.702Z,32.4
2019-03-22T11:13:16.850Z,33.0
2019-03-22T11:23:34.277Z,33.0
2019-03-22T11:34:24.133Z,33.6
2019-03-22T11:44:41.729Z,33.6
2019-03-22T11:55:44.099Z,33.8
2019-03-22T12:06:39.058Z,34.0
2019-03-22T12:17:31.327Z,33.9
2019-03-22T12:30:27.516Z,33.7
2019-03-22T12:48:16.754Z,33.4
2019-03-22T12:58:36.100Z,33.4
2019-03-22T13:08:57.118Z,32.9
2019-03-22T13:19:49.135Z,32.0
2019-03-22T13:30:42.967Z,31.6
2019-03-22T13:41:03.198Z,31.6
2019-03-22T13:52:06.751Z,31.1
2019-03-22T14:03:02.657Z,31.0
2019-03-22T14:13:48.877Z,30.9
2019-03-22T14:24:40.012Z,30.9
2019-03-22T14:35:33.977Z,30.8
2019-03-22T14:46:37.424Z,30.8
2019-03-22T14:57:29.358Z,30.8
2019-03-22T15:08:21.508Z,30.8
2019-03-22T15:18:36.754Z,30.8
2019-03-22T15:29:57.618Z,30.3
2019-03-22T15:40:15.392Z,30.3
2019-03-22T15:51:11.162Z,29.4
2019-03-22T16:01:59.081Z,28.8
2019-03-22T16:12:18.677Z,28.8
2019-03-22T16:22:38.509Z,28.1
2019-03-22T16:33:30.311Z,26.5
2019-03-22T16:44:21.589Z,25.7
2019-03-22T16:55:09.130Z,24.9
2019-03-22T17:05:56.650Z,24.2
2019-03-22T17:16:46.712Z,23.4
2019-03-22T17:27:49.378Z,23.4
2019-03-22T17:38:45.540Z,22.0
2019-03-22T17:49:47.774Z,21.3
2019-03-22T18:01:24.976Z,20.7
2019-03-22T18:11:41.147Z,20.7
2019-03-22T18:21:58.347Z,20.0
2019-03-22T18:32:41.004Z,19.4
2019-03-22T18:43:00.012Z,18.8
2019-03-22T18:53:16.642Z,18.2
2019-03-22T19:04:23.020Z,17.2
2019-03-22T19:15:03.949Z,17.2
2019-03-22T19:30:12.195Z,16.2
2019-03-22T19:41:22.434Z,15.9
2019-03-22T19:52:48.625Z,15.4
2019-03-22T20:03:41.030Z,15.0
2019-03-22T20:16:01.809Z,14.5
2019-03-22T20:49:55.387Z,13.4
2019-03-22T21:04:09.781Z,13.0
2019-03-22T21:24:23.321Z,12.9
2019-03-22T21:39:13.133Z,12.5
2019-03-22T22:19:34.713Z,11.5
2019-03-22T22:29:53.935Z,11.1
2019-03-22T22:41:20.871Z,10.6
2019-03-22T22:51:54.794Z,10.5
2019-03-22T23:02:10.933Z,10.4
2019-03-22T23:12:56.540Z,10.0
2019-03-22T23:24:22.396Z,9.9
2019-03-22T23:34:37.683Z,9.9
2019-03-22T23:44:51.257Z,9.7
2019-03-22T23:56:55.328Z,9.4
